createdAt,value
2022-11-07T00:01:49.719Z,23.10
2022-11-07T00:04:17.342Z,23.10
2022-11-07T00:06:44.644Z,23.10
2022-11-07T00:09:11.618Z,23.10
2022-11-07T00:11:38.703Z,23.10
2022-11-07T00:14:05.748Z,23.10
2022-11-07T00:16:33.198Z,23.10
2022-11-07T00:19:00.098Z,23.10
2022-11-07T00:21:26.994Z,23.10
2022-11-07T00:23:53.863Z,23.10
2022-11-07T00:26:21.123Z,23.10
2022-11-07T00:28:51.275Z,23.10
2022-11-07T00:31:19.804Z,23.10
2022-11-07T00:33:46.819Z,23.10
2022-11-07T00:36:26.707Z,23.10
2022-11-07T00:38:54.595Z,23.20
2022-11-07T00:41:22.811Z,23.10
2022-11-07T00:43:52.596Z,23.20
2022-11-07T00:46:20.231Z,23.20
2022-11-07T00:48:47.334Z,23.20
2022-11-07T00:51:24.481Z,23.20
2022-11-07T00:53:52.629Z,23.20
2022-11-07T00:56:23.673Z,23.20
2022-11-07T00:58:58.870Z,23.20
2022-11-07T01:01:36.477Z,23.20
2022-11-07T01:04:22.026Z,23.20
2022-11-07T01:06:49.214Z,23.30
2022-11-07T01:09:21.744Z,23.30
2022-11-07T01:11:49.843Z,23.30
2022-11-07T01:14:20.111Z,23.20
2022-11-07T01:16:47.536Z,23.30
2022-11-07T01:19:15.078Z,23.30
2022-11-07T01:21:43.609Z,23.20
2022-11-07T01:24:17.714Z,23.20
2022-11-07T01:26:48.674Z,23.20
2022-11-07T01:29:18.197Z,23.20
2022-11-07T01:31:45.706Z,23.20
2022-11-07T01:34:13.054Z,23.20
2022-11-07T01:36:43.310Z,23.20
2022-11-07T01:39:10.372Z,23.20
2022-11-07T01:41:39.981Z,23.20
2022-11-07T01:44:06.782Z,22.90
2022-11-07T01:46:46.419Z,23.20
2022-11-07T01:49:18.959Z,23.20
2022-11-07T01:51:57.127Z,23.20
2022-11-07T01:54:30.430Z,23.20
2022-11-07T01:57:06.000Z,23.20
2022-11-07T01:59:36.805Z,23.20
2022-11-07T02:02:05.350Z,23.20
2022-11-07T02:04:32.663Z,23.10
2022-11-07T02:07:24.369Z,23.10
2022-11-07T02:09:54.697Z,23.20
2022-11-07T02:12:25.888Z,23.20
2022-11-07T02:14:55.024Z,23.10
2022-11-07T02:17:22.332Z,23.10
2022-11-07T02:19:53.810Z,23.10
2022-11-07T02:22:40.413Z,23.10
2022-11-07T02:25:12.657Z,23.10
2022-11-07T02:27:42.296Z,23.10
2022-11-07T02:30:24.324Z,23.10
2022-11-07T02:32:51.279Z,23.10
2022-11-07T02:35:45.365Z,23.10
2022-11-07T02:38:34.731Z,23.10
2022-11-07T02:41:14.147Z,23.10
2022-11-07T02:43:49.581Z,23.10
2022-11-07T02:46:22.098Z,23.10
2022-11-07T02:48:54.629Z,23.10
2022-11-07T02:51:22.244Z,23.10
2022-11-07T02:53:49.215Z,23.00
2022-11-07T02:56:16.183Z,23.00
2022-11-07T02:58:43.331Z,23.10
2022-11-07T03:01:10.391Z,23.10
2022-11-07T03:03:44.572Z,23.00
2022-11-07T03:06:17.714Z,23.00
2022-11-07T03:08:44.974Z,23.10
2022-11-07T03:11:13.844Z,23.10
2022-11-07T03:13:40.751Z,23.10
2022-11-07T03:16:11.810Z,23.10
2022-11-07T03:18:38.991Z,23.10
2022-11-07T03:21:07.059Z,23.10
2022-11-07T03:23:36.109Z,23.10
2022-11-07T03:26:04.708Z,23.10
2022-11-07T03:28:32.737Z,23.10
2022-11-07T03:31:04.784Z,23.10
2022-11-07T03:33:31.940Z,23.10
2022-11-07T03:36:01.928Z,23.10
2022-11-07T03:38:29.161Z,23.10
2022-11-07T03:40:55.988Z,23.10
2022-11-07T03:43:25.371Z,23.10
2022-11-07T03:45:52.280Z,23.10
2022-11-07T03:48:19.258Z,23.20
2022-11-07T03:50:49.287Z,23.20
2022-11-07T03:53:20.719Z,23.20
2022-11-07T03:55:50.868Z,23.20
2022-11-07T03:58:17.804Z,23.20
2022-11-07T04:00:44.913Z,23.20
2022-11-07T04:03:11.891Z,23.20
2022-11-07T04:05:38.856Z,23.20
2022-11-07T04:08:06.238Z,23.20
2022-11-07T04:10:33.685Z,23.20
2022-11-07T04:13:18.905Z,23.20
2022-11-07T04:16:05.106Z,23.20
2022-11-07T04:18:31.944Z,23.20
2022-11-07T04:20:59.077Z,23.20
2022-11-07T04:23:25.987Z,23.20
2022-11-07T04:26:11.161Z,23.20
2022-11-07T04:28:38.039Z,23.20
2022-11-07T04:31:05.212Z,23.20
2022-11-07T04:33:32.254Z,23.20
2022-11-07T04:35:59.200Z,23.20
2022-11-07T04:38:26.079Z,23.10
2022-11-07T04:40:57.805Z,23.20
2022-11-07T04:43:27.129Z,23.20
2022-11-07T04:45:54.424Z,23.20
2022-11-07T04:48:21.287Z,23.20
2022-11-07T04:50:49.165Z,23.10
2022-11-07T04:53:20.766Z,23.20
2022-11-07T04:55:47.832Z,23.10
2022-11-07T04:58:14.887Z,23.10
2022-11-07T05:00:41.924Z,23.10
2022-11-07T05:03:09.617Z,23.10
2022-11-07T05:05:36.666Z,23.10
2022-11-07T05:08:03.797Z,23.10
2022-11-07T05:10:30.862Z,23.10
2022-11-07T05:13:00.152Z,23.00
2022-11-07T05:15:26.975Z,23.10
2022-11-07T05:17:53.956Z,23.00
2022-11-07T05:20:35.280Z,23.00
2022-11-07T05:23:34.975Z,23.00
2022-11-07T05:26:04.272Z,23.00
2022-11-07T05:28:38.699Z,22.60
2022-11-07T05:31:08.809Z,23.00
2022-11-07T05:33:36.406Z,23.00
2022-11-07T05:36:22.416Z,23.00
2022-11-07T05:38:52.790Z,23.00
2022-11-07T05:41:22.169Z,23.00
2022-11-07T05:43:49.058Z,23.00
2022-11-07T05:46:15.975Z,23.00
2022-11-07T05:48:42.856Z,23.00
2022-11-07T05:51:10.026Z,23.00
2022-11-07T05:53:37.115Z,23.00
2022-11-07T05:56:04.277Z,23.00
2022-11-07T05:58:31.272Z,23.00
2022-11-07T06:01:07.771Z,23.00
2022-11-07T06:03:34.833Z,23.00
2022-11-07T06:06:02.019Z,23.00
2022-11-07T06:08:28.859Z,23.00
2022-11-07T06:10:55.815Z,23.00
2022-11-07T06:13:22.695Z,23.00
2022-11-07T06:15:49.560Z,23.00
2022-11-07T06:18:22.133Z,23.10
2022-11-07T06:20:49.674Z,23.10
2022-11-07T06:23:17.258Z,23.00
2022-11-07T06:25:44.512Z,23.10
2022-11-07T06:28:16.447Z,23.10
2022-11-07T06:30:44.901Z,23.10
2022-11-07T06:33:18.590Z,23.10
2022-11-07T06:35:46.574Z,23.10
2022-11-07T06:38:14.927Z,23.10
2022-11-07T06:40:42.721Z,23.10
2022-11-07T06:43:19.281Z,23.10
2022-11-07T06:45:47.707Z,23.10
2022-11-07T06:48:16.146Z,23.10
2022-11-07T06:50:43.291Z,23.10
2022-11-07T06:53:14.097Z,23.10
2022-11-07T06:55:41.537Z,23.50
2022-11-07T06:58:08.401Z,23.10
2022-11-07T07:00:37.300Z,23.10
2022-11-07T07:03:05.290Z,23.10
2022-11-07T07:05:34.707Z,23.10
2022-11-07T07:08:02.797Z,23.60
2022-11-07T07:10:37.566Z,23.20
2022-11-07T07:13:04.485Z,23.20
2022-11-07T07:15:47.785Z,23.20
2022-11-07T07:18:19.763Z,23.20
2022-11-07T07:20:50.236Z,23.20
2022-11-07T07:23:20.269Z,23.30
2022-11-07T07:25:48.046Z,23.30
2022-11-07T07:28:14.999Z,23.30
2022-11-07T07:30:44.850Z,23.30
2022-11-07T07:33:16.013Z,23.30
2022-11-07T07:35:43.155Z,23.30
2022-11-07T07:38:11.691Z,23.40
2022-11-07T07:40:38.726Z,23.30
2022-11-07T07:43:08.058Z,23.30
2022-11-07T07:45:35.012Z,23.40
2022-11-07T07:48:02.640Z,23.50
2022-11-07T07:50:31.691Z,23.40
2022-11-07T07:52:58.786Z,23.40
2022-11-07T07:55:29.152Z,23.40
2022-11-07T07:57:56.242Z,23.50
2022-11-07T08:00:23.283Z,23.50
2022-11-07T08:03:08.117Z,23.50
2022-11-07T08:05:40.475Z,23.50
2022-11-07T08:08:08.906Z,23.50
2022-11-07T08:10:42.155Z,23.50
2022-11-07T08:13:10.117Z,23.50
2022-11-07T08:15:37.266Z,23.50
2022-11-07T08:18:05.109Z,23.60
2022-11-07T08:20:32.237Z,23.60
2022-11-07T08:23:06.922Z,23.60
2022-11-07T08:25:37.037Z,23.60
2022-11-07T08:28:07.223Z,23.60
2022-11-07T08:30:35.498Z,23.70
2022-11-07T08:33:03.988Z,23.50
2022-11-07T08:35:42.691Z,23.70
2022-11-07T08:38:12.607Z,23.70
2022-11-07T08:40:39.672Z,23.80
2022-11-07T08:43:08.752Z,23.80
2022-11-07T08:45:35.684Z,23.80
2022-11-07T08:48:02.716Z,23.90
2022-11-07T08:50:36.698Z,23.90
2022-11-07T08:53:04.032Z,24.00
2022-11-07T08:55:31.094Z,24.00
2022-11-07T08:58:06.950Z,24.10
2022-11-07T09:00:35.863Z,24.10
2022-11-07T09:05:58.285Z,24.20
2022-11-07T09:08:28.235Z,24.20
2022-11-07T09:11:05.265Z,24.20
2022-11-07T09:13:34.138Z,24.30
2022-11-07T09:16:05.103Z,24.30
2022-11-07T09:18:34.720Z,24.30
2022-11-07T09:21:01.753Z,24.40
2022-11-07T09:23:28.893Z,24.40
2022-11-07T09:26:00.979Z,24.40
2022-11-07T09:28:28.585Z,24.50
2022-11-07T09:31:04.707Z,24.50
2022-11-07T09:33:37.814Z,24.50
2022-11-07T09:36:05.976Z,24.50
2022-11-07T09:38:33.360Z,24.50
2022-11-07T09:41:54.358Z,24.40
2022-11-07T09:44:46.815Z,24.50
2022-11-07T09:47:26.878Z,24.60
2022-11-07T09:50:01.639Z,24.50
2022-11-07T09:52:36.790Z,24.60
2022-11-07T09:55:27.142Z,24.60
2022-11-07T09:58:22.917Z,24.60
2022-11-07T10:01:06.070Z,24.60
2022-11-07T10:03:52.915Z,24.70
2022-11-07T10:06:45.303Z,24.70
2022-11-07T10:09:32.245Z,24.70
2022-11-07T10:12:39.221Z,24.60
2022-11-07T10:15:26.624Z,24.70
2022-11-07T10:18:02.020Z,24.60
2022-11-07T10:21:23.086Z,24.60
2022-11-07T10:23:59.818Z,24.60
2022-11-07T10:26:28.862Z,24.60
2022-11-07T10:29:10.728Z,24.60
2022-11-07T10:31:50.212Z,24.50
2022-11-07T10:34:40.590Z,24.60
2022-11-07T10:37:15.183Z,24.60
2022-11-07T10:39:42.046Z,24.60
2022-11-07T10:42:17.358Z,24.50
2022-11-07T10:44:46.168Z,24.50
2022-11-07T10:47:28.039Z,24.60
2022-11-07T10:49:55.350Z,24.60
2022-11-07T10:52:22.670Z,24.60
2022-11-07T10:54:49.701Z,24.60
2022-11-07T10:57:20.811Z,24.50
2022-11-07T10:59:56.883Z,24.50
2022-11-07T11:02:28.967Z,25.40
2022-11-07T11:05:03.260Z,24.50
2022-11-07T11:07:40.366Z,24.60
2022-11-07T11:10:31.843Z,24.60
2022-11-07T11:12:58.870Z,24.60
2022-11-07T11:15:32.775Z,24.60
2022-11-07T11:18:14.887Z,24.60
2022-11-07T11:21:03.251Z,24.60
2022-11-07T11:23:37.618Z,24.60
2022-11-07T11:26:17.176Z,24.70
2022-11-07T11:29:02.106Z,24.70
2022-11-07T11:31:42.693Z,24.70
2022-11-07T11:34:34.501Z,25.70
2022-11-07T11:37:08.954Z,24.70
2022-11-07T11:39:58.963Z,24.80
2022-11-07T11:42:31.928Z,24.80
2022-11-07T11:45:41.691Z,24.80
2022-11-07T11:48:31.705Z,24.80
2022-11-07T11:51:14.930Z,24.90
2022-11-07T11:53:42.019Z,24.90
2022-11-07T11:56:11.451Z,24.90
2022-11-07T11:58:57.848Z,25.00
2022-11-07T12:02:28.954Z,25.00
2022-11-07T12:05:23.256Z,25.10
2022-11-07T12:08:45.655Z,26.10
2022-11-07T12:11:30.748Z,25.30
2022-11-07T12:14:03.629Z,25.20
2022-11-07T12:16:51.578Z,25.20
2022-11-07T12:19:32.102Z,25.30
2022-11-07T12:22:35.991Z,25.30
2022-11-07T12:25:28.942Z,25.30
2022-11-07T12:28:31.644Z,25.40
2022-11-07T12:32:15.815Z,25.40
2022-11-07T12:35:17.579Z,25.40
2022-11-07T12:38:21.886Z,25.50
2022-11-07T12:41:12.945Z,25.50
2022-11-07T12:44:01.031Z,25.50
2022-11-07T12:46:50.997Z,25.50
2022-11-07T12:50:00.160Z,25.60
2022-11-07T12:53:23.569Z,25.60
2022-11-07T12:55:59.450Z,25.60
2022-11-07T12:58:33.606Z,25.60
2022-11-07T13:01:02.838Z,25.60
2022-11-07T13:04:02.109Z,25.60
2022-11-07T13:07:00.542Z,25.60
2022-11-07T13:09:52.070Z,25.60
2022-11-07T13:12:51.079Z,25.60
2022-11-07T13:15:18.830Z,25.60
2022-11-07T13:17:47.539Z,25.60
2022-11-07T13:20:31.564Z,25.60
2022-11-07T13:23:01.678Z,25.60
2022-11-07T13:25:32.175Z,25.50
2022-11-07T13:27:59.196Z,25.60
2022-11-07T13:30:40.700Z,25.50
2022-11-07T13:33:30.918Z,25.50
2022-11-07T13:36:25.951Z,25.60
2022-11-07T13:38:59.577Z,25.50
2022-11-07T13:41:27.018Z,25.50
2022-11-07T13:44:14.168Z,25.40
2022-11-07T13:46:52.159Z,25.50
2022-11-07T13:49:43.003Z,25.60
2022-11-07T13:52:37.532Z,25.60
2022-11-07T13:55:16.311Z,25.90
2022-11-07T13:58:07.031Z,25.60
2022-11-07T14:00:34.714Z,25.50
2022-11-07T14:03:24.833Z,25.50
2022-11-07T14:05:52.995Z,25.50
2022-11-07T14:08:31.257Z,25.50
2022-11-07T14:10:59.595Z,25.60
2022-11-07T14:13:41.243Z,25.50
2022-11-07T14:16:22.666Z,25.60
2022-11-07T14:19:01.173Z,25.50
2022-11-07T14:21:34.931Z,25.60
2022-11-07T14:24:02.799Z,25.50
2022-11-07T14:26:33.423Z,25.50
2022-11-07T14:29:02.076Z,25.60
2022-11-07T14:31:31.658Z,25.60
2022-11-07T14:34:20.340Z,25.60
2022-11-07T14:36:55.118Z,25.60
2022-11-07T14:39:25.671Z,25.60
2022-11-07T14:41:55.992Z,25.60
2022-11-07T14:44:55.261Z,25.60
2022-11-07T14:47:28.852Z,25.70
2022-11-07T14:49:56.869Z,25.70
2022-11-07T14:52:40.627Z,25.70
2022-11-07T14:55:28.558Z,25.70
2022-11-07T14:57:55.777Z,25.70
2022-11-07T15:00:23.259Z,25.80
2022-11-07T15:02:55.321Z,25.80
2022-11-07T15:05:41.960Z,25.80
2022-11-07T15:08:36.765Z,25.80
2022-11-07T15:11:29.603Z,25.80
2022-11-07T15:13:59.612Z,25.80
2022-11-07T15:16:38.781Z,25.80
2022-11-07T15:19:08.845Z,25.90
2022-11-07T15:21:50.718Z,25.90
2022-11-07T15:24:44.425Z,25.80
2022-11-07T15:27:14.327Z,25.90
2022-11-07T15:29:52.631Z,25.80
2022-11-07T15:32:23.188Z,25.90
2022-11-07T15:35:23.020Z,25.90
2022-11-07T15:37:59.807Z,25.90
2022-11-07T15:40:29.320Z,25.90
2022-11-07T15:42:56.600Z,25.80
2022-11-07T15:45:23.810Z,25.80
2022-11-07T15:47:51.701Z,25.80
2022-11-07T15:50:25.328Z,25.80
2022-11-07T15:52:54.180Z,25.80
2022-11-07T15:55:23.095Z,25.10
2022-11-07T15:57:53.095Z,25.80
2022-11-07T16:00:26.966Z,25.80
2022-11-07T16:02:54.256Z,25.80
2022-11-07T16:05:21.309Z,25.80
2022-11-07T16:07:48.318Z,25.80
2022-11-07T16:10:25.822Z,25.80
2022-11-07T16:12:54.096Z,25.90
2022-11-07T16:15:25.206Z,25.80
2022-11-07T16:17:52.244Z,25.80
2022-11-07T16:20:23.125Z,25.80
2022-11-07T16:22:51.053Z,25.80
2022-11-07T16:25:22.681Z,25.80
2022-11-07T16:27:53.149Z,25.80
2022-11-07T16:30:20.829Z,25.80
2022-11-07T16:32:48.743Z,25.80
2022-11-07T16:35:16.223Z,25.80
2022-11-07T16:37:43.445Z,25.80
2022-11-07T16:40:18.703Z,25.80
2022-11-07T16:42:47.486Z,25.80
2022-11-07T16:45:20.478Z,25.80
2022-11-07T16:47:48.325Z,25.80
2022-11-07T16:50:17.410Z,25.80
2022-11-07T16:52:47.610Z,25.80
2022-11-07T16:55:17.973Z,25.90
2022-11-07T16:57:46.313Z,25.80
2022-11-07T17:00:23.483Z,25.80
2022-11-07T17:02:51.069Z,25.80
2022-11-07T17:05:18.593Z,25.80
2022-11-07T17:07:45.598Z,25.80
2022-11-07T17:10:18.024Z,25.80
2022-11-07T17:12:45.046Z,25.80
2022-11-07T17:15:12.312Z,25.70
2022-11-07T17:17:39.753Z,25.70
2022-11-07T17:20:08.083Z,25.80
2022-11-07T17:22:35.018Z,25.80
2022-11-07T17:25:02.001Z,25.70
2022-11-07T17:27:28.898Z,25.70
2022-11-07T17:29:56.134Z,25.70
2022-11-07T17:32:23.103Z,25.70
2022-11-07T17:35:04.670Z,25.70
2022-11-07T17:37:39.629Z,25.70
2022-11-07T17:40:07.496Z,25.70
2022-11-07T17:42:37.960Z,25.70
2022-11-07T17:45:06.580Z,25.70
2022-11-07T17:47:36.597Z,25.70
2022-11-07T17:50:04.744Z,25.70
2022-11-07T17:52:31.820Z,25.70
2022-11-07T17:54:59.106Z,25.70
2022-11-07T17:57:26.015Z,25.70
2022-11-07T17:59:57.938Z,25.70
2022-11-07T18:02:24.935Z,25.60
2022-11-07T18:04:52.057Z,25.70
2022-11-07T18:07:19.727Z,25.70
2022-11-07T18:09:46.686Z,25.70
2022-11-07T18:12:13.680Z,25.70
2022-11-07T18:14:40.673Z,25.70
2022-11-07T18:17:07.933Z,25.70
2022-11-07T18:19:35.011Z,25.70
2022-11-07T18:22:01.984Z,25.70
2022-11-07T18:24:28.878Z,25.70
2022-11-07T18:26:56.252Z,25.70
2022-11-07T18:29:23.383Z,25.70
2022-11-07T18:31:52.508Z,25.70
2022-11-07T18:34:23.545Z,25.70
2022-11-07T18:36:50.496Z,25.70
2022-11-07T18:39:21.950Z,25.70
2022-11-07T18:41:51.101Z,25.70
2022-11-07T18:44:19.094Z,25.70
2022-11-07T18:46:47.793Z,25.70
2022-11-07T18:49:16.055Z,25.70
2022-11-07T18:51:43.947Z,25.70
2022-11-07T18:54:16.526Z,25.70
2022-11-07T18:56:43.664Z,25.70
2022-11-07T18:59:11.359Z,25.70
2022-11-07T19:01:38.843Z,25.70
2022-11-07T19:04:06.771Z,25.70
2022-11-07T19:06:34.530Z,25.70
2022-11-07T19:09:02.049Z,25.70
2022-11-07T19:11:31.255Z,25.70
2022-11-07T19:14:02.619Z,25.70
2022-11-07T19:16:31.517Z,25.70
2022-11-07T19:19:00.202Z,25.70
2022-11-07T19:21:27.655Z,25.70
2022-11-07T19:23:55.010Z,25.70
2022-11-07T19:26:22.674Z,25.70
2022-11-07T19:28:50.492Z,25.70
2022-11-07T19:31:17.501Z,25.70
2022-11-07T19:33:44.977Z,25.70
2022-11-07T19:36:20.272Z,25.70
2022-11-07T19:38:48.961Z,25.60
2022-11-07T19:41:17.689Z,25.70
2022-11-07T19:43:50.347Z,25.70
2022-11-07T19:46:22.939Z,25.70
2022-11-07T19:48:51.777Z,25.60
2022-11-07T19:51:23.310Z,25.60
2022-11-07T19:53:59.114Z,26.80
2022-11-07T19:56:29.519Z,25.70
2022-11-07T19:58:56.711Z,25.60
2022-11-07T20:01:29.069Z,25.60
2022-11-07T20:03:57.483Z,25.60
2022-11-07T20:06:32.465Z,25.60
2022-11-07T20:09:01.546Z,25.60
2022-11-07T20:11:29.043Z,25.60
2022-11-07T20:14:00.210Z,25.60
2022-11-07T20:16:30.517Z,25.60
2022-11-07T20:18:57.581Z,25.60
2022-11-07T20:21:25.636Z,25.60
2022-11-07T20:23:57.122Z,25.60
2022-11-07T20:26:27.187Z,25.60
2022-11-07T20:28:54.418Z,25.60
2022-11-07T20:31:32.860Z,25.60
2022-11-07T20:34:03.145Z,25.60
2022-11-07T20:36:33.364Z,25.60
2022-11-07T20:39:02.105Z,25.60
2022-11-07T20:41:29.423Z,25.60
2022-11-07T20:44:06.320Z,25.60
2022-11-07T20:46:36.935Z,25.60
2022-11-07T20:49:07.415Z,25.60
2022-11-07T20:51:34.790Z,25.60
2022-11-07T20:54:01.857Z,25.60
2022-11-07T20:56:29.937Z,25.60
2022-11-07T20:58:58.126Z,25.60
2022-11-07T21:01:36.235Z,25.60
2022-11-07T21:04:06.673Z,25.60
2022-11-07T21:06:35.343Z,25.60
2022-11-07T21:09:02.478Z,25.60
2022-11-07T21:11:30.603Z,25.60
2022-11-07T21:13:58.372Z,25.60
2022-11-07T21:16:27.399Z,25.70
2022-11-07T21:18:55.997Z,25.70
2022-11-07T21:21:27.701Z,25.60
2022-11-07T21:23:57.489Z,25.70
2022-11-07T21:26:35.598Z,25.60
2022-11-07T21:29:06.675Z,25.70
2022-11-07T21:31:38.495Z,25.60
2022-11-07T21:34:09.094Z,25.70
2022-11-07T21:36:36.110Z,25.70
2022-11-07T21:39:03.719Z,25.60
2022-11-07T21:41:31.511Z,25.70
2022-11-07T21:43:59.697Z,25.70
2022-11-07T21:46:30.730Z,25.70
2022-11-07T21:48:59.042Z,25.70
2022-11-07T21:51:32.145Z,25.60
2022-11-07T21:54:00.390Z,25.60
2022-11-07T21:56:31.638Z,25.60
2022-11-07T21:59:02.332Z,25.60
2022-11-07T22:01:35.009Z,25.70
2022-11-07T22:04:08.558Z,25.70
2022-11-07T22:06:39.440Z,25.60
2022-11-07T22:09:08.960Z,25.60
2022-11-07T22:11:39.121Z,25.60
2022-11-07T22:14:06.209Z,25.70
2022-11-07T22:16:33.745Z,25.60
2022-11-07T22:19:00.798Z,25.70
2022-11-07T22:21:27.901Z,25.60
2022-11-07T22:23:56.247Z,25.70
2022-11-07T22:26:26.246Z,25.60
2022-11-07T22:28:54.408Z,25.60
2022-11-07T22:31:22.918Z,25.70
2022-11-07T22:33:51.636Z,25.60
2022-11-07T22:36:19.932Z,25.60
2022-11-07T22:38:47.205Z,25.60
2022-11-07T22:41:21.778Z,25.60
2022-11-07T22:43:50.284Z,25.60
2022-11-07T22:46:24.565Z,25.60
2022-11-07T22:48:53.071Z,25.60
2022-11-07T22:51:31.156Z,25.60
2022-11-07T22:54:11.717Z,25.60
2022-11-07T22:56:41.427Z,25.60
2022-11-07T22:59:08.628Z,25.60
2022-11-07T23:01:39.302Z,25.60
2022-11-07T23:04:07.817Z,25.60
2022-11-07T23:06:35.095Z,25.60
2022-11-07T23:09:05.558Z,25.60
2022-11-07T23:11:51.623Z,25.60
2022-11-07T23:14:22.089Z,25.60
2022-11-07T23:16:52.626Z,25.60
2022-11-07T23:19:24.311Z,25.60
2022-11-07T23:21:55.107Z,25.70
2022-11-07T23:24:22.488Z,25.60
2022-11-07T23:26:49.979Z,25.60
2022-11-07T23:29:21.555Z,25.60
2022-11-07T23:31:51.168Z,25.60
2022-11-07T23:34:20.625Z,25.60
2022-11-07T23:36:51.091Z,25.70
2022-11-07T23:39:21.700Z,25.60
2022-11-07T23:41:48.934Z,25.70
2022-11-07T23:44:15.981Z,25.60
2022-11-07T23:47:02.246Z,25.70
2022-11-07T23:49:48.498Z,25.70
2022-11-07T23:52:17.217Z,25.70
2022-11-07T23:55:02.528Z,25.70
2022-11-07T23:57:32.508Z,25.70
